sensor_id;sensor_type;location;lat;lon;timestamp;temperature;humidity
1049;DHT22;513;51.444;7.196;2022-07-23T00:01:05;16.20;99.90
1049;DHT22;513;51.444;7.196;2022-07-23T00:03:32;16.20;99.90
1049;DHT22;513;51.444;7.196;2022-07-23T00:05:58;16.20;99.90
1049;DHT22;513;51.444;7.196;2022-07-23T00:08:25;16.10;99.90
1049;DHT22;513;51.444;7.196;2022-07-23T00:10:52;16.10;99.90
1049;DHT22;513;51.444;7.196;2022-07-23T00:13:18;16.10;99.90
1049;DHT22;513;51.444;7.196;2022-07-23T00:15:45;16.10;99.90
1049;DHT22;513;51.444;7.196;2022-07-23T00:18:13;16.10;99.90
1049;DHT22;513;51.444;7.196;2022-07-23T00:20:39;16.10;99.90
1049;DHT22;513;51.444;7.196;2022-07-23T00:23:06;16.00;99.90
1049;DHT22;513;51.444;7.196;2022-07-23T00:25:33;16.00;99.90
1049;DHT22;513;51.444;7.196;2022-07-23T00:28:00;16.00;99.90
1049;DHT22;513;51.444;7.196;2022-07-23T00:30:27;16.00;99.90
1049;DHT22;513;51.444;7.196;2022-07-23T00:32:57;15.90;99.90
1049;DHT22;513;51.444;7.196;2022-07-23T00:35:27;15.90;99.90
1049;DHT22;513;51.444;7.196;2022-07-23T00:37:54;15.90;99.90
1049;DHT22;513;51.444;7.196;2022-07-23T00:40:21;16.00;99.90
1049;DHT22;513;51.444;7.196;2022-07-23T00:42:48;16.00;99.90
1049;DHT22;513;51.444;7.196;2022-07-23T00:45:15;15.90;99.90
1049;DHT22;513;51.444;7.196;2022-07-23T00:47:41;15.90;99.90
1049;DHT22;513;51.444;7.196;2022-07-23T00:50:09;15.90;99.90
1049;DHT22;513;51.444;7.196;2022-07-23T00:52:38;15.90;99.90
1049;DHT22;513;51.444;7.196;2022-07-23T00:55:06;15.90;99.90
1049;DHT22;513;51.444;7.196;2022-07-23T00:57:34;15.90;99.90
1049;DHT22;513;51.444;7.196;2022-07-23T01:00:01;15.70;99.90
1049;DHT22;513;51.444;7.196;2022-07-23T01:02:28;15.70;99.90
1049;DHT22;513;51.444;7.196;2022-07-23T01:04:54;15.70;99.90
1049;DHT22;513;51.444;7.196;2022-07-23T01:07:21;15.60;99.90
1049;DHT22;513;51.444;7.196;2022-07-23T01:09:51;15.60;99.90
1049;DHT22;513;51.444;7.196;2022-07-23T01:12:18;15.60;99.90
1049;DHT22;513;51.444;7.196;2022-07-23T01:14:44;15.70;99.90
1049;DHT22;513;51.444;7.196;2022-07-23T01:17:11;15.70;99.90
1049;DHT22;513;51.444;7.196;2022-07-23T01:19:38;15.70;99.90
1049;DHT22;513;51.444;7.196;2022-07-23T01:22:04;15.70;99.90
1049;DHT22;513;51.444;7.196;2022-07-23T01:24:32;15.60;99.90
1049;DHT22;513;51.444;7.196;2022-07-23T01:26:59;15.60;99.90
1049;DHT22;513;51.444;7.196;2022-07-23T01:29:25;15.70;99.90
1049;DHT22;513;51.444;7.196;2022-07-23T01:31:52;15.70;99.90
1049;DHT22;513;51.444;7.196;2022-07-23T01:34:19;15.80;99.90
1049;DHT22;513;51.444;7.196;2022-07-23T01:36:45;15.80;99.90
1049;DHT22;513;51.444;7.196;2022-07-23T01:39:12;15.80;99.90
1049;DHT22;513;51.444;7.196;2022-07-23T01:41:40;15.80;99.90
1049;DHT22;513;51.444;7.196;2022-07-23T01:44:07;15.80;99.90
1049;DHT22;513;51.444;7.196;2022-07-23T01:46:34;15.80;99.90
1049;DHT22;513;51.444;7.196;2022-07-23T01:49:00;15.80;99.90
1049;DHT22;513;51.444;7.196;2022-07-23T01:51:27;15.80;99.90
1049;DHT22;513;51.444;7.196;2022-07-23T01:53:54;15.90;99.90
1049;DHT22;513;51.444;7.196;2022-07-23T01:56:20;15.90;99.90
1049;DHT22;513;51.444;7.196;2022-07-23T01:58:49;15.80;99.90
1049;DHT22;513;51.444;7.196;2022-07-23T02:01:15;15.80;99.90
1049;DHT22;513;51.444;7.196;2022-07-23T02:03:42;15.90;99.90
1049;DHT22;513;51.444;7.196;2022-07-23T02:06:09;15.80;99.90
1049;DHT22;513;51.444;7.196;2022-07-23T02:08:35;15.80;99.90
1049;DHT22;513;51.444;7.196;2022-07-23T02:11:02;15.70;99.90
1049;DHT22;513;51.444;7.196;2022-07-23T02:13:29;15.70;99.90
1049;DHT22;513;51.444;7.196;2022-07-23T02:15:57;15.70;99.90
1049;DHT22;513;51.444;7.196;2022-07-23T02:18:24;15.80;99.90
1049;DHT22;513;51.444;7.196;2022-07-23T02:20:50;15.80;99.90
1049;DHT22;513;51.444;7.196;2022-07-23T02:23:17;15.80;99.90
1049;DHT22;513;51.444;7.196;2022-07-23T02:25:44;15.80;99.90
1049;DHT22;513;51.444;7.196;2022-07-23T02:28:10;15.80;99.90
1049;DHT22;513;51.444;7.196;2022-07-23T02:30:37;15.80;99.90
1049;DHT22;513;51.444;7.196;2022-07-23T02:33:06;15.80;99.90
1049;DHT22;513;51.444;7.196;2022-07-23T02:35:32;15.80;99.90
1049;DHT22;513;51.444;7.196;2022-07-23T02:37:59;15.80;99.90
1049;DHT22;513;51.444;7.196;2022-07-23T02:40:26;15.80;99.90
1049;DHT22;513;51.444;7.196;2022-07-23T02:42:52;15.80;99.90
1049;DHT22;513;51.444;7.196;2022-07-23T02:45:19;15.90;99.90
1049;DHT22;513;51.444;7.196;2022-07-23T02:47:46;15.80;99.90
1049;DHT22;513;51.444;7.196;2022-07-23T02:50:14;15.70;99.90
1049;DHT22;513;51.444;7.196;2022-07-23T02:52:40;15.70;99.90
1049;DHT22;513;51.444;7.196;2022-07-23T02:55:07;15.70;99.90
1049;DHT22;513;51.444;7.196;2022-07-23T02:57:34;15.70;99.90
1049;DHT22;513;51.444;7.196;2022-07-23T03:00:01;15.70;99.90
1049;DHT22;513;51.444;7.196;2022-07-23T03:02:28;15.70;99.90
1049;DHT22;513;51.444;7.196;2022-07-23T03:04:54;15.70;99.90
1049;DHT22;513;51.444;7.196;2022-07-23T03:07:22;15.70;99.90
1049;DHT22;513;51.444;7.196;2022-07-23T03:09:49;15.70;99.90
1049;DHT22;513;51.444;7.196;2022-07-23T03:12:16;15.60;99.90
1049;DHT22;513;51.444;7.196;2022-07-23T03:14:42;15.60;99.90
1049;DHT22;513;51.444;7.196;2022-07-23T03:17:09;15.50;99.90
1049;DHT22;513;51.444;7.196;2022-07-23T03:19:36;15.60;99.90
1049;DHT22;513;51.444;7.196;2022-07-23T03:22:04;15.60;99.90
1049;DHT22;513;51.444;7.196;2022-07-23T03:24:32;15.60;99.90
1049;DHT22;513;51.444;7.196;2022-07-23T03:27:12;15.50;99.90
1049;DHT22;513;51.444;7.196;2022-07-23T03:29:39;15.50;99.90
1049;DHT22;513;51.444;7.196;2022-07-23T03:32:06;15.50;99.90
1049;DHT22;513;51.444;7.196;2022-07-23T03:34:32;15.50;99.90
1049;DHT22;513;51.444;7.196;2022-07-23T03:36:59;15.40;99.90
1049;DHT22;513;51.444;7.196;2022-07-23T03:39:26;15.40;99.90
1049;DHT22;513;51.444;7.196;2022-07-23T03:41:54;15.30;99.90
1049;DHT22;513;51.444;7.196;2022-07-23T03:44:20;15.30;99.90
1049;DHT22;513;51.444;7.196;2022-07-23T03:46:47;15.30;99.90
1049;DHT22;513;51.444;7.196;2022-07-23T03:49:14;15.30;99.90
1049;DHT22;513;51.444;7.196;2022-07-23T03:51:41;15.30;99.90
1049;DHT22;513;51.444;7.196;2022-07-23T03:54:07;15.20;99.90
1049;DHT22;513;51.444;7.196;2022-07-23T03:56:34;15.20;99.90
1049;DHT22;513;51.444;7.196;2022-07-23T03:59:02;15.20;99.90
1049;DHT22;513;51.444;7.196;2022-07-23T04:01:29;15.20;99.90
1049;DHT22;513;51.444;7.196;2022-07-23T04:03:55;15.20;99.90
1049;DHT22;513;51.444;7.196;2022-07-23T04:06:22;15.20;99.90
1049;DHT22;513;51.444;7.196;2022-07-23T04:08:49;15.20;99.90
1049;DHT22;513;51.444;7.196;2022-07-23T04:11:16;15.20;99.90
1049;DHT22;513;51.444;7.196;2022-07-23T04:13:42;15.20;99.90
1049;DHT22;513;51.444;7.196;2022-07-23T04:16:10;15.20;99.90
1049;DHT22;513;51.444;7.196;2022-07-23T04:18:37;15.20;99.90
1049;DHT22;513;51.444;7.196;2022-07-23T04:21:04;15.20;99.90
1049;DHT22;513;51.444;7.196;2022-07-23T04:23:31;15.20;99.90
1049;DHT22;513;51.444;7.196;2022-07-23T04:25:57;15.30;99.90
1049;DHT22;513;51.444;7.196;2022-07-23T04:28:24;15.30;99.90
1049;DHT22;513;51.444;7.196;2022-07-23T04:30:51;15.30;99.90
1049;DHT22;513;51.444;7.196;2022-07-23T04:33:18;15.20;99.90
1049;DHT22;513;51.444;7.196;2022-07-23T04:35:45;15.10;99.90
1049;DHT22;513;51.444;7.196;2022-07-23T04:38:12;15.10;99.90
1049;DHT22;513;51.444;7.196;2022-07-23T04:40:38;15.10;99.90
1049;DHT22;513;51.444;7.196;2022-07-23T04:43:05;15.20;99.90
1049;DHT22;513;51.444;7.196;2022-07-23T04:45:32;15.20;99.90
1049;DHT22;513;51.444;7.196;2022-07-23T04:47:59;15.20;99.90
1049;DHT22;513;51.444;7.196;2022-07-23T04:50:27;15.10;99.90
1049;DHT22;513;51.444;7.196;2022-07-23T04:52:54;15.10;99.90
1049;DHT22;513;51.444;7.196;2022-07-23T04:55:21;15.10;99.90
1049;DHT22;513;51.444;7.196;2022-07-23T04:57:47;15.20;99.90
1049;DHT22;513;51.444;7.196;2022-07-23T05:00:14;15.30;99.90
1049;DHT22;513;51.444;7.196;2022-07-23T05:02:41;15.20;99.90
1049;DHT22;513;51.444;7.196;2022-07-23T05:05:08;15.20;99.90
1049;DHT22;513;51.444;7.196;2022-07-23T05:07:36;15.30;99.90
1049;DHT22;513;51.444;7.196;2022-07-23T05:10:03;15.30;99.90
1049;DHT22;513;51.444;7.196;2022-07-23T05:12:30;15.30;99.90
1049;DHT22;513;51.444;7.196;2022-07-23T05:14:58;15.20;99.90
1049;DHT22;513;51.444;7.196;2022-07-23T05:17:24;15.30;99.90
1049;DHT22;513;51.444;7.196;2022-07-23T05:19:51;15.30;99.90
1049;DHT22;513;51.444;7.196;2022-07-23T05:22:18;15.30;99.90
1049;DHT22;513;51.444;7.196;2022-07-23T05:24:46;15.30;99.90
1049;DHT22;513;51.444;7.196;2022-07-23T05:27:12;15.30;99.90
1049;DHT22;513;51.444;7.196;2022-07-23T05:29:39;15.50;99.90
1049;DHT22;513;51.444;7.196;2022-07-23T05:32:06;15.50;99.90
1049;DHT22;513;51.444;7.196;2022-07-23T05:34:32;15.50;99.90
1049;DHT22;513;51.444;7.196;2022-07-23T05:36:59;15.50;99.90
1049;DHT22;513;51.444;7.196;2022-07-23T05:39:26;15.70;99.90
1049;DHT22;513;51.444;7.196;2022-07-23T05:41:53;15.80;99.90
1049;DHT22;513;51.444;7.196;2022-07-23T05:44:20;15.90;99.90
1049;DHT22;513;51.444;7.196;2022-07-23T05:46:47;15.90;99.90
1049;DHT22;513;51.444;7.196;2022-07-23T05:49:14;15.90;99.90
1049;DHT22;513;51.444;7.196;2022-07-23T05:51:41;16.00;99.90
1049;DHT22;513;51.444;7.196;2022-07-23T05:54:07;16.10;99.90
1049;DHT22;513;51.444;7.196;2022-07-23T05:56:34;16.10;99.90
1049;DHT22;513;51.444;7.196;2022-07-23T05:59:02;16.30;99.90
1049;DHT22;513;51.444;7.196;2022-07-23T06:01:29;16.40;99.90
1049;DHT22;513;51.444;7.196;2022-07-23T06:03:55;16.50;99.90
1049;DHT22;513;51.444;7.196;2022-07-23T06:06:22;16.50;99.90
1049;DHT22;513;51.444;7.196;2022-07-23T06:08:49;16.60;99.90
1049;DHT22;513;51.444;7.196;2022-07-23T06:11:15;16.60;99.90
1049;DHT22;513;51.444;7.196;2022-07-23T06:13:42;16.60;99.90
1049;DHT22;513;51.444;7.196;2022-07-23T06:16:10;16.70;99.90
1049;DHT22;513;51.444;7.196;2022-07-23T06:18:37;16.70;99.90
1049;DHT22;513;51.444;7.196;2022-07-23T06:21:03;16.70;99.90
1049;DHT22;513;51.444;7.196;2022-07-23T06:23:30;16.80;99.90
1049;DHT22;513;51.444;7.196;2022-07-23T06:25:56;16.70;99.90
1049;DHT22;513;51.444;7.196;2022-07-23T06:28:23;16.80;99.90
1049;DHT22;513;51.444;7.196;2022-07-23T06:30:50;16.80;99.90
1049;DHT22;513;51.444;7.196;2022-07-23T06:33:18;16.90;99.90
1049;DHT22;513;51.444;7.196;2022-07-23T06:35:44;16.90;99.90
1049;DHT22;513;51.444;7.196;2022-07-23T06:38:11;16.80;99.90
1049;DHT22;513;51.444;7.196;2022-07-23T06:40:38;16.90;99.90
1049;DHT22;513;51.444;7.196;2022-07-23T06:43:05;16.90;99.90
1049;DHT22;513;51.444;7.196;2022-07-23T06:45:31;17.00;99.90
1049;DHT22;513;51.444;7.196;2022-07-23T06:47:58;17.00;99.90
1049;DHT22;513;51.444;7.196;2022-07-23T06:50:26;17.20;99.90
1049;DHT22;513;51.444;7.196;2022-07-23T06:53:12;17.30;99.90
1049;DHT22;513;51.444;7.196;2022-07-23T06:55:52;17.30;99.90
1049;DHT22;513;51.444;7.196;2022-07-23T06:58:19;17.30;99.90
1049;DHT22;513;51.444;7.196;2022-07-23T07:00:46;17.30;99.90
1049;DHT22;513;51.444;7.196;2022-07-23T07:03:13;17.30;99.90
1049;DHT22;513;51.444;7.196;2022-07-23T07:05:41;17.20;99.90
1049;DHT22;513;51.444;7.196;2022-07-23T07:08:07;17.40;99.90
1049;DHT22;513;51.444;7.196;2022-07-23T07:10:34;17.50;99.90
1049;DHT22;513;51.444;7.196;2022-07-23T07:13:00;17.40;99.90
1049;DHT22;513;51.444;7.196;2022-07-23T07:15:27;17.40;99.90
1049;DHT22;513;51.444;7.196;2022-07-23T07:17:54;17.40;99.90
1049;DHT22;513;51.444;7.196;2022-07-23T07:20:20;17.50;99.90
1049;DHT22;513;51.444;7.196;2022-07-23T07:22:48;17.40;99.90
1049;DHT22;513;51.444;7.196;2022-07-23T07:25:15;17.40;99.90
1049;DHT22;513;51.444;7.196;2022-07-23T07:27:42;17.40;99.90
1049;DHT22;513;51.444;7.196;2022-07-23T07:30:11;17.50;99.90
1049;DHT22;513;51.444;7.196;2022-07-23T07:32:38;17.60;99.90
1049;DHT22;513;51.444;7.196;2022-07-23T07:35:05;17.70;99.90
1049;DHT22;513;51.444;7.196;2022-07-23T07:37:32;17.90;99.90
1049;DHT22;513;51.444;7.196;2022-07-23T07:40:00;18.10;99.90
1049;DHT22;513;51.444;7.196;2022-07-23T07:42:27;18.20;99.90
1049;DHT22;513;51.444;7.196;2022-07-23T07:44:54;18.30;99.90
1049;DHT22;513;51.444;7.196;2022-07-23T07:47:20;18.60;99.90
1049;DHT22;513;51.444;7.196;2022-07-23T07:49:47;18.70;99.90
1049;DHT22;513;51.444;7.196;2022-07-23T07:52:14;18.60;99.90
1049;DHT22;513;51.444;7.196;2022-07-23T07:54:40;18.60;99.90
1049;DHT22;513;51.444;7.196;2022-07-23T07:57:09;18.70;99.90
1049;DHT22;513;51.444;7.196;2022-07-23T07:59:36;18.90;99.90
1049;DHT22;513;51.444;7.196;2022-07-23T08:02:02;19.10;99.90
1049;DHT22;513;51.444;7.196;2022-07-23T08:04:29;19.10;55.80
1049;DHT22;513;51.444;7.196;2022-07-23T08:06:56;18.80;64.00
1049;DHT22;513;51.444;7.196;2022-07-23T08:09:22;18.90;88.80
1049;DHT22;513;51.444;7.196;2022-07-23T08:11:49;19.10;99.60
1049;DHT22;513;51.444;7.196;2022-07-23T08:14:18;19.20;80.80
1049;DHT22;513;51.444;7.196;2022-07-23T08:16:45;19.20;81.60
1049;DHT22;513;51.444;7.196;2022-07-23T08:19:11;19.10;75.00
1049;DHT22;513;51.444;7.196;2022-07-23T08:21:38;19.00;90.20
1049;DHT22;513;51.444;7.196;2022-07-23T08:24:05;19.10;99.90
1049;DHT22;513;51.444;7.196;2022-07-23T08:26:32;19.10;88.10
1049;DHT22;513;51.444;7.196;2022-07-23T08:28:58;19.20;83.00
1049;DHT22;513;51.444;7.196;2022-07-23T08:31:26;19.30;49.00
1049;DHT22;513;51.444;7.196;2022-07-23T08:33:53;19.50;32.70
1049;DHT22;513;51.444;7.196;2022-07-23T08:36:20;19.50;31.40
1049;DHT22;513;51.444;7.196;2022-07-23T08:38:47;19.70;50.10
1049;DHT22;513;51.444;7.196;2022-07-23T08:41:14;19.80;30.00
1049;DHT22;513;51.444;7.196;2022-07-23T08:43:42;19.70;7.10
1049;DHT22;513;51.444;7.196;2022-07-23T08:46:09;19.60;21.20
1049;DHT22;513;51.444;7.196;2022-07-23T08:48:37;19.70;29.30
1049;DHT22;513;51.444;7.196;2022-07-23T08:51:05;19.90;9.70
1049;DHT22;513;51.444;7.196;2022-07-23T08:53:33;20.00;16.20
1049;DHT22;513;51.444;7.196;2022-07-23T08:56:02;20.10;19.30
1049;DHT22;513;51.444;7.196;2022-07-23T08:58:30;19.80;22.00
1049;DHT22;513;51.444;7.196;2022-07-23T09:00:57;19.60;2.40
1049;DHT22;513;51.444;7.196;2022-07-23T09:03:25;19.50;5.10
1049;DHT22;513;51.444;7.196;2022-07-23T09:05:54;19.40;10.70
1049;DHT22;513;51.444;7.196;2022-07-23T09:08:23;19.60;1.00
1049;DHT22;513;51.444;7.196;2022-07-23T09:10:52;19.80;1.00
1049;DHT22;513;51.444;7.196;2022-07-23T09:13:24;20.00;1.00
1049;DHT22;513;51.444;7.196;2022-07-23T09:15:53;20.00;1.00
1049;DHT22;513;51.444;7.196;2022-07-23T09:18:29;19.90;1.00
1049;DHT22;513;51.444;7.196;2022-07-23T09:21:10;19.80;1.00
1049;DHT22;513;51.444;7.196;2022-07-23T09:23:38;19.90;99.90
1049;DHT22;513;51.444;7.196;2022-07-23T09:26:17;19.90;1.00
1049;DHT22;513;51.444;7.196;2022-07-23T09:28:53;20.10;37.80
1049;DHT22;513;51.444;7.196;2022-07-23T09:31:20;20.10;1.00
1049;DHT22;513;51.444;7.196;2022-07-23T09:33:47;20.10;99.90
1049;DHT22;513;51.444;7.196;2022-07-23T09:36:15;20.20;1.00
1049;DHT22;513;51.444;7.196;2022-07-23T09:38:52;20.30;99.90
1049;DHT22;513;51.444;7.196;2022-07-23T09:41:19;20.30;99.90
1049;DHT22;513;51.444;7.196;2022-07-23T09:43:46;20.30;1.00
1049;DHT22;513;51.444;7.196;2022-07-23T09:46:20;20.40;99.90
1049;DHT22;513;51.444;7.196;2022-07-23T09:48:48;20.50;99.90
1049;DHT22;513;51.444;7.196;2022-07-23T09:51:16;20.30;10.80
1049;DHT22;513;51.444;7.196;2022-07-23T09:53:44;20.30;99.90
1049;DHT22;513;51.444;7.196;2022-07-23T09:56:12;20.10;71.00
1049;DHT22;513;51.444;7.196;2022-07-23T09:58:40;19.90;59.10
1049;DHT22;513;51.444;7.196;2022-07-23T10:01:16;20.00;1.00
1049;DHT22;513;51.444;7.196;2022-07-23T10:03:42;20.10;1.00
1049;DHT22;513;51.444;7.196;2022-07-23T10:06:10;20.30;1.00
1049;DHT22;513;51.444;7.196;2022-07-23T10:08:41;20.30;1.00
1049;DHT22;513;51.444;7.196;2022-07-23T10:11:09;20.30;1.00
1049;DHT22;513;51.444;7.196;2022-07-23T10:13:37;20.60;52.50
1049;DHT22;513;51.444;7.196;2022-07-23T10:16:24;20.80;99.90
1049;DHT22;513;51.444;7.196;2022-07-23T10:18:51;20.90;1.00
1049;DHT22;513;51.444;7.196;2022-07-23T10:21:37;21.10;10.90
1049;DHT22;513;51.444;7.196;2022-07-23T10:24:16;21.20;1.00
1049;DHT22;513;51.444;7.196;2022-07-23T10:26:52;21.20;1.00
1049;DHT22;513;51.444;7.196;2022-07-23T10:29:34;21.20;1.00
1049;DHT22;513;51.444;7.196;2022-07-23T10:32:08;21.30;1.00
1049;DHT22;513;51.444;7.196;2022-07-23T10:34:47;21.40;1.00
1049;DHT22;513;51.444;7.196;2022-07-23T10:37:22;21.50;1.00
1049;DHT22;513;51.444;7.196;2022-07-23T10:40:09;21.20;99.90
1049;DHT22;513;51.444;7.196;2022-07-23T10:42:37;21.00;99.90
1049;DHT22;513;51.444;7.196;2022-07-23T10:45:22;21.00;99.90
1049;DHT22;513;51.444;7.196;2022-07-23T10:47:50;21.00;99.90
1049;DHT22;513;51.444;7.196;2022-07-23T10:50:22;21.10;1.00
1049;DHT22;513;51.444;7.196;2022-07-23T10:53:07;21.30;99.90
1049;DHT22;513;51.444;7.196;2022-07-23T10:55:47;21.40;1.00
1049;DHT22;513;51.444;7.196;2022-07-23T10:58:19;21.60;1.00
1049;DHT22;513;51.444;7.196;2022-07-23T11:00:46;21.80;99.90
1049;DHT22;513;51.444;7.196;2022-07-23T11:03:29;21.80;99.90
1049;DHT22;513;51.444;7.196;2022-07-23T11:05:57;22.10;1.00
1049;DHT22;513;51.444;7.196;2022-07-23T11:08:24;22.10;99.90
1049;DHT22;513;51.444;7.196;2022-07-23T11:10:54;22.10;99.90
1049;DHT22;513;51.444;7.196;2022-07-23T11:13:54;22.00;99.90
1049;DHT22;513;51.444;7.196;2022-07-23T11:16:24;21.70;99.90
1049;DHT22;513;51.444;7.196;2022-07-23T11:19:06;21.70;99.90
1049;DHT22;513;51.444;7.196;2022-07-23T11:21:49;21.70;99.90
1049;DHT22;513;51.444;7.196;2022-07-23T11:24:18;22.00;99.90
1049;DHT22;513;51.444;7.196;2022-07-23T11:26:55;22.10;99.90
1049;DHT22;513;51.444;7.196;2022-07-23T11:29:49;22.20;99.90
1049;DHT22;513;51.444;7.196;2022-07-23T11:35:21;22.00;99.90
1049;DHT22;513;51.444;7.196;2022-07-23T11:37:48;22.10;99.90
1049;DHT22;513;51.444;7.196;2022-07-23T11:40:20;22.00;99.90
1049;DHT22;513;51.444;7.196;2022-07-23T11:42:54;22.00;99.90
1049;DHT22;513;51.444;7.196;2022-07-23T11:45:22;22.10;99.90
1049;DHT22;513;51.444;7.196;2022-07-23T11:47:49;22.10;99.90
1049;DHT22;513;51.444;7.196;2022-07-23T11:50:16;22.10;99.90
1049;DHT22;513;51.444;7.196;2022-07-23T11:52:42;22.10;99.90
1049;DHT22;513;51.444;7.196;2022-07-23T11:55:10;22.50;99.90
1049;DHT22;513;51.444;7.196;2022-07-23T11:57:40;22.50;99.90
1049;DHT22;513;51.444;7.196;2022-07-23T12:00:11;22.60;99.90
1049;DHT22;513;51.444;7.196;2022-07-23T12:02:38;22.80;99.90
1049;DHT22;513;51.444;7.196;2022-07-23T12:05:06;22.70;99.90
1049;DHT22;513;51.444;7.196;2022-07-23T12:07:36;22.80;99.90
1049;DHT22;513;51.444;7.196;2022-07-23T12:10:09;22.90;99.90
1049;DHT22;513;51.444;7.196;2022-07-23T12:12:37;22.80;99.90
1049;DHT22;513;51.444;7.196;2022-07-23T12:15:05;22.80;99.90
1049;DHT22;513;51.444;7.196;2022-07-23T12:17:35;22.70;99.90
1049;DHT22;513;51.444;7.196;2022-07-23T12:20:03;22.80;99.90
1049;DHT22;513;51.444;7.196;2022-07-23T12:22:35;22.70;99.90
1049;DHT22;513;51.444;7.196;2022-07-23T12:25:05;22.50;99.90
1049;DHT22;513;51.444;7.196;2022-07-23T12:27:32;22.60;99.90
1049;DHT22;513;51.444;7.196;2022-07-23T12:29:59;22.40;99.90
1049;DHT22;513;51.444;7.196;2022-07-23T12:32:44;22.60;99.90
1049;DHT22;513;51.444;7.196;2022-07-23T12:35:12;22.90;99.90
1049;DHT22;513;51.444;7.196;2022-07-23T12:37:41;23.20;99.90
1049;DHT22;513;51.444;7.196;2022-07-23T12:40:23;23.30;99.90
1049;DHT22;513;51.444;7.196;2022-07-23T12:42:52;23.30;99.90
1049;DHT22;513;51.444;7.196;2022-07-23T12:45:19;23.50;99.90
1049;DHT22;513;51.444;7.196;2022-07-23T12:48:06;23.30;99.90
1049;DHT22;513;51.444;7.196;2022-07-23T12:50:38;23.30;99.90
1049;DHT22;513;51.444;7.196;2022-07-23T12:53:07;23.40;99.90
1049;DHT22;513;51.444;7.196;2022-07-23T12:55:35;23.50;99.90
1049;DHT22;513;51.444;7.196;2022-07-23T12:58:07;23.70;99.90
1049;DHT22;513;51.444;7.196;2022-07-23T13:00:50;23.60;99.90
1049;DHT22;513;51.444;7.196;2022-07-23T13:03:29;23.50;99.90
1049;DHT22;513;51.444;7.196;2022-07-23T13:05:57;23.50;99.90
1049;DHT22;513;51.444;7.196;2022-07-23T13:08:26;23.70;99.90
1049;DHT22;513;51.444;7.196;2022-07-23T13:10:53;23.80;99.90
1049;DHT22;513;51.444;7.196;2022-07-23T13:13:22;24.10;99.90
1049;DHT22;513;51.444;7.196;2022-07-23T13:15:49;24.00;99.90
1049;DHT22;513;51.444;7.196;2022-07-23T13:18:17;24.00;99.90
1049;DHT22;513;51.444;7.196;2022-07-23T13:20:46;24.00;99.90
1049;DHT22;513;51.444;7.196;2022-07-23T13:23:13;24.10;99.90
1049;DHT22;513;51.444;7.196;2022-07-23T13:25:41;23.80;99.90
1049;DHT22;513;51.444;7.196;2022-07-23T13:28:07;23.10;99.90
1049;DHT22;513;51.444;7.196;2022-07-23T13:30:35;22.90;99.90
1049;DHT22;513;51.444;7.196;2022-07-23T13:33:03;23.30;99.90
1049;DHT22;513;51.444;7.196;2022-07-23T13:35:30;23.60;99.90
1049;DHT22;513;51.444;7.196;2022-07-23T13:37:58;23.70;99.90
1049;DHT22;513;51.444;7.196;2022-07-23T13:40:25;23.70;99.90
1049;DHT22;513;51.444;7.196;2022-07-23T13:42:52;23.90;99.90
1049;DHT22;513;51.444;7.196;2022-07-23T13:45:19;24.10;99.90
1049;DHT22;513;51.444;7.196;2022-07-23T13:47:45;24.30;99.90
1049;DHT22;513;51.444;7.196;2022-07-23T13:50:12;24.50;99.90
1049;DHT22;513;51.444;7.196;2022-07-23T13:52:41;24.60;99.90
1049;DHT22;513;51.444;7.196;2022-07-23T13:55:09;24.50;99.90
1049;DHT22;513;51.444;7.196;2022-07-23T13:57:36;24.50;99.90
1049;DHT22;513;51.444;7.196;2022-07-23T14:00:05;24.70;99.90
1049;DHT22;513;51.444;7.196;2022-07-23T14:02:32;24.80;99.90
1049;DHT22;513;51.444;7.196;2022-07-23T14:04:59;24.70;99.90
1049;DHT22;513;51.444;7.196;2022-07-23T14:07:26;24.10;99.90
1049;DHT22;513;51.444;7.196;2022-07-23T14:09:52;23.50;99.90
1049;DHT22;513;51.444;7.196;2022-07-23T14:12:20;23.30;99.90
1049;DHT22;513;51.444;7.196;2022-07-23T14:14:47;23.50;99.90
1049;DHT22;513;51.444;7.196;2022-07-23T14:17:14;23.80;99.90
1049;DHT22;513;51.444;7.196;2022-07-23T14:19:40;23.90;99.90
1049;DHT22;513;51.444;7.196;2022-07-23T14:22:07;24.00;99.90
1049;DHT22;513;51.444;7.196;2022-07-23T14:24:34;24.20;99.90
1049;DHT22;513;51.444;7.196;2022-07-23T14:27:01;24.50;99.90
1049;DHT22;513;51.444;7.196;2022-07-23T14:29:30;24.70;99.90
1049;DHT22;513;51.444;7.196;2022-07-23T14:31:56;24.80;99.90
1049;DHT22;513;51.444;7.196;2022-07-23T14:34:23;24.60;99.90
1049;DHT22;513;51.444;7.196;2022-07-23T14:36:50;24.30;99.90
1049;DHT22;513;51.444;7.196;2022-07-23T14:39:17;24.10;99.90
1049;DHT22;513;51.444;7.196;2022-07-23T14:41:44;24.10;99.90
1049;DHT22;513;51.444;7.196;2022-07-23T14:44:11;24.30;99.90
1049;DHT22;513;51.444;7.196;2022-07-23T14:46:39;24.30;99.90
1049;DHT22;513;51.444;7.196;2022-07-23T14:49:05;24.50;99.90
1049;DHT22;513;51.444;7.196;2022-07-23T14:51:32;24.60;99.90
1049;DHT22;513;51.444;7.196;2022-07-23T14:53:59;24.80;99.90
1049;DHT22;513;51.444;7.196;2022-07-23T14:56:25;24.90;99.90
1049;DHT22;513;51.444;7.196;2022-07-23T14:58:52;24.80;99.90
1049;DHT22;513;51.444;7.196;2022-07-23T15:01:21;24.90;99.90
1049;DHT22;513;51.444;7.196;2022-07-23T15:03:49;24.90;99.90
1049;DHT22;513;51.444;7.196;2022-07-23T15:06:16;24.80;99.90
1049;DHT22;513;51.444;7.196;2022-07-23T15:08:43;24.90;99.90
1049;DHT22;513;51.444;7.196;2022-07-23T15:11:10;24.90;99.90
1049;DHT22;513;51.444;7.196;2022-07-23T15:13:36;24.80;99.90
1049;DHT22;513;51.444;7.196;2022-07-23T15:16:04;24.30;99.90
1049;DHT22;513;51.444;7.196;2022-07-23T15:18:31;23.90;99.90
1049;DHT22;513;51.444;7.196;2022-07-23T15:20:59;23.60;99.90
1049;DHT22;513;51.444;7.196;2022-07-23T15:23:26;23.50;99.90
1049;DHT22;513;51.444;7.196;2022-07-23T15:25:54;23.40;99.90
1049;DHT22;513;51.444;7.196;2022-07-23T15:28:20;23.40;99.90
1049;DHT22;513;51.444;7.196;2022-07-23T15:30:47;23.40;99.90
1049;DHT22;513;51.444;7.196;2022-07-23T15:33:14;23.80;99.90
1049;DHT22;513;51.444;7.196;2022-07-23T15:35:41;24.10;99.90
1049;DHT22;513;51.444;7.196;2022-07-23T15:38:09;24.10;99.90
1049;DHT22;513;51.444;7.196;2022-07-23T15:40:36;24.00;99.90
1049;DHT22;513;51.444;7.196;2022-07-23T15:43:03;23.90;99.90
1049;DHT22;513;51.444;7.196;2022-07-23T15:45:30;23.90;99.90
1049;DHT22;513;51.444;7.196;2022-07-23T15:47:57;23.90;99.90
1049;DHT22;513;51.444;7.196;2022-07-23T15:50:24;23.90;99.90
1049;DHT22;513;51.444;7.196;2022-07-23T15:52:51;23.80;99.90
1049;DHT22;513;51.444;7.196;2022-07-23T15:55:19;23.70;99.90
1049;DHT22;513;51.444;7.196;2022-07-23T15:57:46;23.70;99.90
1049;DHT22;513;51.444;7.196;2022-07-23T16:00:13;23.90;99.90
1049;DHT22;513;51.444;7.196;2022-07-23T16:02:39;24.00;99.90
1049;DHT22;513;51.444;7.196;2022-07-23T16:05:07;24.00;99.90
1049;DHT22;513;51.444;7.196;2022-07-23T16:07:34;23.90;99.90
1049;DHT22;513;51.444;7.196;2022-07-23T16:10:03;23.90;99.90
1049;DHT22;513;51.444;7.196;2022-07-23T16:12:32;23.90;99.90
1049;DHT22;513;51.444;7.196;2022-07-23T16:14:58;23.80;99.90
1049;DHT22;513;51.444;7.196;2022-07-23T16:17:25;23.70;99.90
1049;DHT22;513;51.444;7.196;2022-07-23T16:19:51;23.50;99.90
1049;DHT22;513;51.444;7.196;2022-07-23T16:22:18;23.40;99.90
1049;DHT22;513;51.444;7.196;2022-07-23T16:24:45;23.40;99.90
1049;DHT22;513;51.444;7.196;2022-07-23T16:27:12;23.40;99.90
1049;DHT22;513;51.444;7.196;2022-07-23T16:29:40;23.40;99.90